Time;durP1;ratioP1;P1;durP2;ratioP2;P2;SDS_P1;SDS_P2;PMS_P1;PMS_P2;Temp;Humidity;BMP_temperature;BMP_pressure;BME280_temperature;BME280_humidity;BME280_pressure;Samples;Min_cycle;Max_cycle;Signal;HPM_P1;HPM_P2
2022/02/23 00:01:41;;;;;;;0.23;0.20;;;;;;;7.70;100.00;100806.56;5012454;28;20499;-49
2022/02/23 00:04:07;;;;;;;0.20;0.10;;;;;;;7.80;100.00;100820.56;5006636;28;20540;-49
2022/02/23 00:06:34;;;;;;;0.20;0.17;;;;;;;7.70;100.00;100819.78;5003264;28;20456;-50
2022/02/23 00:09:01;;;;;;;0.20;0.20;;;;;;;7.62;100.00;100833.94;5012577;28;20874;-49
2022/02/23 00:11:27;;;;;;;0.20;0.20;;;;;;;7.52;100.00;100833.13;5010164;28;20520;-49
2022/02/23 00:13:54;;;;;;;0.30;0.20;;;;;;;7.52;100.00;100837.53;5012447;28;21000;-50
2022/02/23 00:16:21;;;;;;;0.20;0.10;;;;;;;7.39;100.00;100839.41;5012346;28;20511;-49
2022/02/23 00:18:48;;;;;;;0.30;0.20;;;;;;;7.31;100.00;100855.31;5012457;28;20514;-49
2022/02/23 00:21:15;;;;;;;0.20;0.17;;;;;;;7.30;100.00;100850.94;5012183;28;20854;-49
2022/02/23 00:23:43;;;;;;;0.30;0.10;;;;;;;7.26;100.00;100854.47;5012255;28;20455;-49
2022/02/23 00:26:10;;;;;;;0.20;0.13;;;;;;;7.33;100.00;100861.47;5012355;28;20452;-49
2022/02/23 00:28:37;;;;;;;0.20;0.10;;;;;;;7.15;100.00;100866.88;5003627;28;20536;-49
2022/02/23 00:31:04;;;;;;;0.30;0.10;;;;;;;7.12;100.00;100866.88;5012381;28;20918;-49
2022/02/23 00:33:30;;;;;;;0.20;0.10;;;;;;;7.01;100.00;100877.53;5012234;28;20503;-49
2022/02/23 00:35:57;;;;;;;0.30;0.20;;;;;;;6.97;100.00;100872.25;5012084;28;20453;-49
2022/02/23 00:38:24;;;;;;;0.20;0.10;;;;;;;6.98;100.00;100868.72;5014792;28;20467;-49
2022/02/23 00:40:50;;;;;;;0.30;0.20;;;;;;;6.78;100.00;100876.72;5015690;28;20986;-49
2022/02/23 00:43:17;;;;;;;0.30;0.20;;;;;;;6.67;100.00;100873.25;5015700;28;20453;-49
2022/02/23 00:45:43;;;;;;;0.40;0.40;;;;;;;6.37;100.00;100883.00;5015838;28;21096;-48
2022/02/23 00:48:10;;;;;;;0.20;0.20;;;;;;;6.38;100.00;100886.53;5015977;28;20985;-49
2022/02/23 00:50:37;;;;;;;0.20;0.10;;;;;;;6.46;100.00;100890.94;5015784;28;20492;-49
2022/02/23 00:53:03;;;;;;;0.20;0.10;;;;;;;6.30;100.00;100888.28;5015785;28;20526;-49
2022/02/23 00:55:30;;;;;;;0.30;0.20;;;;;;;6.21;100.00;100900.63;5015634;28;20506;-49
2022/02/23 00:57:57;;;;;;;0.30;0.20;;;;;;;6.11;100.00;100898.88;5015373;28;20526;-49
2022/02/23 01:00:23;;;;;;;0.20;0.10;;;;;;;6.08;100.00;100883.06;5015718;28;20468;-49
2022/02/23 01:02:53;;;;;;;0.23;0.20;;;;;;;5.97;100.00;100891.84;5009828;28;20460;-48
2022/02/23 01:05:20;;;;;;;0.20;0.10;;;;;;;5.91;100.00;100903.28;5010580;28;20519;-49
2022/02/23 01:07:47;;;;;;;0.20;0.20;;;;;;;5.85;100.00;100908.50;5013185;28;20452;-49
2022/02/23 01:10:13;;;;;;;0.27;0.13;;;;;;;5.63;100.00;100908.50;5015248;28;20576;-49
2022/02/23 01:12:40;;;;;;;0.20;0.10;;;;;;;5.61;100.00;100915.50;5015487;28;20463;-48
2022/02/23 01:15:07;;;;;;;0.20;0.10;;;;;;;5.46;100.00;100918.13;5015592;28;20453;-49
2022/02/23 01:17:34;;;;;;;0.30;0.17;;;;;;;5.58;100.00;100917.28;5015276;28;20456;-48
2022/02/23 01:20:01;;;;;;;0.30;0.20;;;;;;;5.27;100.00;100921.59;5015342;28;20530;-48
2022/02/23 01:22:27;;;;;;;0.20;0.20;;;;;;;5.17;100.00;100925.06;5015190;28;20448;-49
2022/02/23 01:24:54;;;;;;;0.20;0.20;;;;;;;5.03;100.00;100935.56;5015279;28;20459;-49
2022/02/23 01:27:21;;;;;;;0.30;0.20;;;;;;;4.91;100.00;100931.09;5015631;28;20484;-49
2022/02/23 01:29:47;;;;;;;0.20;0.10;;;;;;;4.91;100.00;100932.84;5004355;28;20465;-49
2022/02/23 01:32:14;;;;;;;0.30;0.20;;;;;;;4.88;100.00;100927.59;5014315;28;20845;-49
2022/02/23 01:34:41;;;;;;;0.30;0.20;;;;;;;4.80;100.00;100927.56;5015823;28;20452;-48
2022/02/23 01:37:07;;;;;;;0.20;0.10;;;;;;;4.78;100.00;100924.00;5014070;28;20449;-48
2022/02/23 01:39:34;;;;;;;0.20;0.20;;;;;;;4.69;100.00;100924.88;5015175;28;20484;-49
2022/02/23 01:42:05;;;;;;;0.20;0.17;;;;;;;4.68;100.00;100922.22;5015466;28;20539;-48
2022/02/23 01:44:31;;;;;;;0.20;0.20;;;;;;;4.66;100.00;100916.97;5015244;28;20452;-48
2022/02/23 01:46:59;;;;;;;0.20;0.10;;;;;;;4.54;100.00;100913.38;5013754;28;20453;-48
2022/02/23 01:49:25;;;;;;;0.20;0.10;;;;;;;4.47;100.00;100920.34;5014966;28;20993;-48
2022/02/23 01:51:52;;;;;;;0.30;0.20;;;;;;;4.23;100.00;100926.31;5014791;28;20531;-48
2022/02/23 01:54:19;;;;;;;0.30;0.10;;;;;;;4.25;100.00;100928.94;5014848;28;20460;-48
2022/02/23 01:56:46;;;;;;;0.20;0.20;;;;;;;4.24;100.00;100932.44;4994583;28;20892;-48
2022/02/23 01:59:12;;;;;;;0.20;0.20;;;;;;;4.28;100.00;100931.63;5015644;28;20468;-49
2022/02/23 02:01:39;;;;;;;0.20;0.20;;;;;;;4.09;100.00;100938.47;5016755;28;20449;-48
2022/02/23 02:04:06;;;;;;;0.20;0.20;;;;;;;4.00;100.00;100941.03;5011998;28;20453;-48
2022/02/23 02:06:32;;;;;;;0.20;0.20;;;;;;;3.97;100.00;100949.75;5010016;28;20452;-48
2022/02/23 02:08:59;;;;;;;0.20;0.10;;;;;;;3.80;100.00;100954.00;5015685;28;21024;-48
2022/02/23 02:11:26;;;;;;;0.30;0.20;;;;;;;3.98;100.00;100955.94;5016368;28;20901;-48
2022/02/23 02:13:53;;;;;;;0.20;0.10;;;;;;;4.00;100.00;100976.13;5016282;28;20448;-48
2022/02/23 02:16:20;;;;;;;0.20;0.10;;;;;;;3.79;100.00;100983.78;5016397;28;20887;-48
2022/02/23 02:18:46;;;;;;;0.20;0.20;;;;;;;3.88;100.00;100985.63;5016146;28;20575;-48
2022/02/23 02:21:13;;;;;;;0.20;0.20;;;;;;;3.80;100.00;100988.16;5016307;28;20445;-48
2022/02/23 02:23:40;;;;;;;0.20;0.20;;;;;;;3.71;100.00;100986.34;5016104;28;20457;-48
2022/02/23 02:26:07;;;;;;;0.20;0.10;;;;;;;3.82;100.00;100991.69;5016626;28;20457;-48
2022/02/23 02:28:33;;;;;;;0.20;0.20;;;;;;;3.88;100.00;100986.50;5014022;28;20937;-48
2022/02/23 02:31:00;;;;;;;0.27;0.17;;;;;;;3.63;100.00;101001.16;5013985;28;20515;-48
2022/02/23 02:33:26;;;;;;;0.20;0.20;;;;;;;3.63;100.00;101008.16;5014283;28;20495;-48
2022/02/23 02:35:53;;;;;;;0.20;0.10;;;;;;;3.56;100.00;100999.31;5004903;28;20454;-49
2022/02/23 02:38:20;;;;;;;0.20;0.10;;;;;;;3.82;100.00;100995.19;5012460;28;20480;-48
2022/02/23 02:40:46;;;;;;;0.20;0.20;;;;;;;3.92;100.00;100993.56;5014020;28;20523;-48
2022/02/23 02:43:13;;;;;;;0.20;0.10;;;;;;;3.67;100.00;100997.69;5014237;28;20877;-48
2022/02/23 02:45:39;;;;;;;0.20;0.10;;;;;;;3.60;100.00;101001.13;5014042;28;20970;-48
2022/02/23 02:48:06;;;;;;;0.20;0.10;;;;;;;3.50;100.00;101002.75;5013760;28;20503;-49
2022/02/23 02:50:33;;;;;;;0.20;0.10;;;;;;;3.52;100.00;101015.91;5013614;28;20527;-48
2022/02/23 02:52:59;;;;;;;0.20;0.10;;;;;;;3.72;100.00;101021.41;5013893;28;20483;-48
2022/02/23 02:55:26;;;;;;;0.20;0.20;;;;;;;3.50;100.00;101020.28;5013954;28;20874;-48
2022/02/23 02:57:53;;;;;;;0.20;0.10;;;;;;;3.55;100.00;101032.59;5012194;28;20452;-48
2022/02/23 03:00:19;;;;;;;0.20;0.10;;;;;;;3.40;100.00;101031.53;5013735;28;20530;-48
2022/02/23 03:02:46;;;;;;;0.20;0.13;;;;;;;3.35;100.00;101043.72;5009464;28;20444;-48
2022/02/23 03:05:13;;;;;;;0.20;0.10;;;;;;;3.54;100.00;101037.81;5009672;28;20485;-48
2022/02/23 03:07:39;;;;;;;0.20;0.10;;;;;;;3.35;100.00;101047.25;5011745;28;20448;-48
2022/02/23 03:10:07;;;;;;;0.20;0.20;;;;;;;3.41;100.00;101049.94;5013348;28;20992;-48
2022/02/23 03:12:34;;;;;;;0.20;0.20;;;;;;;3.24;100.00;101051.47;5013415;28;20949;-48
2022/02/23 03:15:01;;;;;;;0.20;0.10;;;;;;;3.30;100.00;101053.31;5013390;28;20452;-48
2022/02/23 03:17:28;;;;;;;0.20;0.10;;;;;;;3.36;100.00;101054.25;5013137;28;20503;-48
2022/02/23 03:19:55;;;;;;;0.20;0.10;;;;;;;3.27;100.00;101068.16;5013464;28;20473;-48
2022/02/23 03:22:22;;;;;;;0.20;0.10;;;;;;;3.29;100.00;101081.31;5013272;28;20441;-48
2022/02/23 03:24:48;;;;;;;0.20;0.20;;;;;;;3.40;100.00;101068.31;5013241;28;21303;-48
2022/02/23 03:27:15;;;;;;;0.20;0.10;;;;;;;3.68;100.00;101067.78;5013101;28;20449;-48
2022/02/23 03:29:42;;;;;;;0.20;0.10;;;;;;;3.72;100.00;101066.97;5013146;28;20472;-48
2022/02/23 03:32:08;;;;;;;0.20;0.10;;;;;;;4.00;100.00;101073.44;5014281;28;20499;-48
2022/02/23 03:34:35;;;;;;;0.20;0.17;;;;;;;4.04;100.00;101079.59;5013334;28;20456;-48
2022/02/23 03:37:02;;;;;;;0.20;0.10;;;;;;;4.22;100.00;101079.78;5000605;28;20495;-48
2022/02/23 03:39:28;;;;;;;0.20;0.10;;;;;;;4.13;100.00;101088.47;5012856;28;20480;-48
2022/02/23 03:41:55;;;;;;;0.20;0.10;;;;;;;4.08;100.00;101078.75;4987220;28;20448;-48
2022/02/23 03:44:22;;;;;;;0.20;0.10;;;;;;;4.09;100.00;101077.88;5012771;28;20449;-48
2022/02/23 03:46:49;;;;;;;0.20;0.20;;;;;;;3.93;100.00;101090.00;5012869;28;20803;-48
2022/02/23 03:49:15;;;;;;;0.20;0.20;;;;;;;4.01;100.00;101090.97;5011460;28;21044;-48
2022/02/23 03:51:42;;;;;;;0.20;0.10;;;;;;;3.86;100.00;101091.69;5013375;28;20500;-48
2022/02/23 03:54:09;;;;;;;0.20;0.10;;;;;;;3.86;100.00;101094.31;5012871;28;20453;-48
2022/02/23 03:56:39;;;;;;;0.20;0.20;;;;;;;3.60;100.00;101103.63;5011081;28;20463;-48
2022/02/23 03:59:10;;;;;;;0.20;0.10;;;;;;;3.48;100.00;101106.09;5012566;28;20464;-48
2022/02/23 04:01:44;;;;;;;0.20;0.10;;;;;;;3.52;100.00;101105.25;5012788;28;20937;-48
2022/02/23 04:04:11;;;;;;;0.20;0.10;;;;;;;3.30;100.00;101113.72;5005740;28;20452;-48
2022/02/23 04:06:39;;;;;;;0.20;0.20;;;;;;;3.46;100.00;101115.72;5006972;28;20507;-48
2022/02/23 04:09:08;;;;;;;0.20;0.10;;;;;;;3.51;100.00;101120.16;5012516;28;20519;-48
2022/02/23 04:11:35;;;;;;;0.20;0.10;;;;;;;3.56;100.00;101129.00;5016490;28;21079;-48
2022/02/23 04:14:06;;;;;;;0.20;0.20;;;;;;;3.50;100.00;101131.53;5016974;28;20506;-48
2022/02/23 04:16:34;;;;;;;0.20;0.10;;;;;;;3.38;100.00;101140.97;5016962;28;20445;-48
2022/02/23 04:19:02;;;;;;;0.20;0.10;;;;;;;3.29;100.00;101152.25;5016605;28;20451;-48
2022/02/23 04:21:29;;;;;;;0.20;0.10;;;;;;;3.12;100.00;101144.09;5016544;28;20876;-48
2022/02/23 04:23:56;;;;;;;0.20;0.10;;;;;;;3.14;100.00;101150.25;5016354;28;20456;-48
2022/02/23 04:26:23;;;;;;;0.20;0.10;;;;;;;3.27;100.00;101154.84;5016712;28;20448;-48
2022/02/23 04:28:50;;;;;;;0.20;0.20;;;;;;;3.13;100.00;101159.00;5016356;28;20449;-48
2022/02/23 04:31:22;;;;;;;0.20;0.10;;;;;;;3.46;100.00;101160.38;5016556;28;20583;-48
2022/02/23 04:33:49;;;;;;;0.20;0.10;;;;;;;3.36;100.00;101158.47;5016371;28;20833;-48
2022/02/23 04:36:16;;;;;;;0.20;0.10;;;;;;;3.43;100.00;101163.84;5004129;28;20841;-48
2022/02/23 04:38:42;;;;;;;0.20;0.20;;;;;;;3.81;100.00;101169.63;5016159;28;20926;-49
2022/02/23 04:41:09;;;;;;;0.20;0.10;;;;;;;4.03;100.00;101175.16;5030364;22;20516;-49
2022/02/23 04:43:36;;;;;;;0.20;0.10;;;;;;;4.16;100.00;101177.06;5003171;28;20453;-49
2022/02/23 04:46:06;;;;;;;0.20;0.10;;;;;;;4.31;100.00;101181.63;5002867;28;20473;-49
2022/02/23 04:48:36;;;;;;;0.20;0.10;;;;;;;4.04;100.00;101196.22;5015901;28;20491;-49
2022/02/23 04:51:03;;;;;;;0.20;0.10;;;;;;;3.98;100.00;101190.91;5015536;28;20473;-49
2022/02/23 04:53:30;;;;;;;0.20;0.13;;;;;;;4.14;100.00;101198.09;5015868;28;20452;-49
2022/02/23 04:55:56;;;;;;;0.20;0.13;;;;;;;3.77;100.00;101204.63;5006195;28;20448;-49
2022/02/23 04:58:23;;;;;;;0.20;0.10;;;;;;;3.75;100.00;101209.00;5027074;28;20933;-49
2022/02/23 05:00:50;;;;;;;0.20;0.20;;;;;;;3.68;100.00;101209.75;5002414;28;21038;-49
2022/02/23 05:03:17;;;;;;;0.20;0.10;;;;;;;3.63;100.00;101213.19;5015750;28;20506;-48
2022/02/23 05:05:45;;;;;;;0.20;0.10;;;;;;;3.61;100.00;101215.78;5007963;28;20459;-50
2022/02/23 05:08:13;;;;;;;0.20;0.10;;;;;;;3.26;100.00;101226.63;5006757;28;20501;-49
2022/02/23 05:10:40;;;;;;;0.20;0.20;;;;;;;3.34;100.00;101236.41;5011438;28;20475;-49
2022/02/23 05:13:07;;;;;;;0.20;0.10;;;;;;;3.31;100.00;101229.34;5015365;28;20499;-49
2022/02/23 05:15:33;;;;;;;0.20;0.10;;;;;;;3.42;100.00;101232.13;5002033;28;20535;-49
2022/02/23 05:18:00;;;;;;;0.20;0.10;;;;;;;2.92;100.00;101234.81;5015409;28;20452;-49
2022/02/23 05:20:28;;;;;;;0.20;0.17;;;;;;;3.19;100.00;101245.78;5012311;28;20468;-49
2022/02/23 05:22:54;;;;;;;0.20;0.10;;;;;;;3.63;100.00;101242.09;5004967;28;20510;-50
2022/02/23 05:25:21;;;;;;;0.20;0.20;;;;;;;3.72;100.00;101245.75;5015926;28;20526;-49
2022/02/23 05:27:48;;;;;;;0.20;0.10;;;;;;;3.47;100.00;101247.13;5006215;28;20446;-49
2022/02/23 05:30:14;;;;;;;0.20;0.10;;;;;;;3.24;100.00;101254.63;5011535;28;20523;-49
2022/02/23 05:32:42;;;;;;;0.20;0.20;;;;;;;3.11;100.00;101257.03;5015004;28;20488;-49
2022/02/23 05:35:09;;;;;;;0.20;0.10;;;;;;;3.19;100.00;101261.56;5001845;28;20949;-50
2022/02/23 05:37:37;;;;;;;0.20;0.10;;;;;;;3.02;100.00;101265.66;5005162;28;20453;-50
2022/02/23 05:40:07;;;;;;;0.20;0.10;;;;;;;2.92;100.00;101275.09;5012257;28;20854;-50
2022/02/23 05:42:34;;;;;;;0.20;0.10;;;;;;;3.01;100.00;101283.97;5014953;28;20965;-50
2022/02/23 05:45:00;;;;;;;0.20;0.17;;;;;;;2.91;100.00;101282.94;5001803;28;20452;-49
2022/02/23 05:47:27;;;;;;;0.20;0.17;;;;;;;2.72;100.00;101289.56;5014623;28;20991;-50
2022/02/23 05:49:55;;;;;;;0.20;0.10;;;;;;;2.75;100.00;101283.50;5010804;28;20469;-49
2022/02/23 05:52:22;;;;;;;0.20;0.10;;;;;;;2.52;100.00;101290.94;5005988;28;20859;-49
2022/02/23 05:54:48;;;;;;;0.20;0.20;;;;;;;2.55;100.00;101296.22;5014701;28;20824;-49
2022/02/23 05:57:15;;;;;;;0.20;0.10;;;;;;;2.53;100.00;101295.31;5026991;28;21006;-49
2022/02/23 05:59:47;;;;;;;0.20;0.10;;;;;;;2.44;100.00;101303.00;5008079;28;20546;-49
2022/02/23 06:02:14;;;;;;;0.20;0.10;;;;;;;2.47;100.00;101305.66;5008210;28;20518;-49
2022/02/23 06:04:40;;;;;;;0.20;0.20;;;;;;;2.45;100.00;101307.38;5008133;28;20453;-48
2022/02/23 06:07:07;;;;;;;0.20;0.10;;;;;;;2.38;100.00;101309.00;5014327;28;20448;-49
2022/02/23 06:09:34;;;;;;;0.20;0.20;;;;;;;2.38;100.00;101319.50;5001369;28;20859;-49
2022/02/23 06:12:02;;;;;;;0.20;0.10;;;;;;;2.25;100.00;101315.72;5000767;28;20548;-49
2022/02/23 06:14:31;;;;;;;0.20;0.10;;;;;;;2.35;100.00;101317.69;5001750;28;20448;-49
2022/02/23 06:16:58;;;;;;;0.20;0.10;;;;;;;2.24;100.00;101320.94;5014256;28;20453;-49
2022/02/23 06:19:25;;;;;;;0.20;0.10;;;;;;;2.20;100.00;101324.34;5006644;28;20453;-50
2022/02/23 06:21:52;;;;;;;0.20;0.10;;;;;;;2.27;100.00;101326.25;5008946;28;20477;-50
2022/02/23 06:24:19;;;;;;;0.20;0.10;;;;;;;2.21;100.00;101327.00;5014085;28;20540;-49
2022/02/23 06:26:46;;;;;;;0.20;0.10;;;;;;;2.20;100.00;101335.72;5000795;28;20450;-49
2022/02/23 06:29:12;;;;;;;0.20;0.20;;;;;;;2.15;100.00;101333.84;5014010;28;20456;-49
2022/02/23 06:31:39;;;;;;;0.27;0.20;;;;;;;2.16;100.00;101338.22;5012850;28;20562;-49
2022/02/23 06:34:06;;;;;;;0.20;0.10;;;;;;;2.19;100.00;101338.28;5001903;28;20495;-49
2022/02/23 06:36:32;;;;;;;0.20;0.10;;;;;;;2.27;100.00;101341.97;5012413;28;20507;-49
2022/02/23 06:38:59;;;;;;;0.20;0.10;;;;;;;2.31;100.00;101331.59;5002478;28;20511;-49
2022/02/23 06:41:26;;;;;;;0.20;0.20;;;;;;;2.40;100.00;101338.78;5013435;28;20543;-49
2022/02/23 06:43:54;;;;;;;0.20;0.10;;;;;;;2.40;100.00;101338.78;5013983;28;20531;-49
2022/02/23 06:46:21;;;;;;;0.20;0.10;;;;;;;2.27;100.00;101341.97;5000741;28;20461;-49
2022/02/23 06:48:49;;;;;;;0.20;0.10;;;;;;;2.35;100.00;101343.94;5013609;28;20485;-49
2022/02/23 06:51:19;;;;;;;0.20;0.10;;;;;;;2.39;100.00;101352.75;5011251;28;20518;-49
2022/02/23 06:53:49;;;;;;;0.20;0.10;;;;;;;2.36;100.00;101358.81;5003455;28;20491;-48
2022/02/23 06:56:16;;;;;;;0.20;0.10;;;;;;;2.42;100.00;101362.41;5017637;28;20466;-48
2022/02/23 06:58:49;;;;;;;0.20;0.20;;;;;;;2.60;100.00;101361.09;5021933;28;20449;-49
2022/02/23 07:01:19;;;;;;;0.20;0.10;;;;;;;2.52;100.00;101357.41;5000221;28;20469;-48
2022/02/23 07:03:47;;;;;;;0.20;0.10;;;;;;;2.56;100.00;101363.59;5013296;28;20967;-49
2022/02/23 07:06:14;;;;;;;0.33;0.33;;;;;;;2.54;100.00;101360.94;5006082;28;20526;-49
2022/02/23 07:08:44;;;;;;;0.20;0.10;;;;;;;2.76;100.00;101364.91;5000541;28;20890;-48
2022/02/23 07:11:11;;;;;;;0.20;0.20;;;;;;;2.70;100.00;101367.41;4999901;28;20887;-49
2022/02/23 07:13:38;;;;;;;0.20;0.10;;;;;;;2.74;100.00;101373.59;5013114;28;20488;-49
2022/02/23 07:16:05;;;;;;;0.20;0.10;;;;;;;2.77;100.00;101371.06;5006724;28;20457;-48
2022/02/23 07:18:33;;;;;;;0.20;0.10;;;;;;;2.93;100.00;101378.38;5006755;28;20452;-48
2022/02/23 07:21:00;;;;;;;0.20;0.20;;;;;;;2.98;100.00;101379.34;5012906;28;20535;-48
2022/02/23 07:23:27;;;;;;;0.20;0.10;;;;;;;3.11;100.00;101377.84;4999868;28;20532;-48
2022/02/23 07:25:56;;;;;;;0.20;0.10;;;;;;;3.19;100.00;101377.13;5012801;28;20488;-48
2022/02/23 07:28:24;;;;;;;0.20;0.20;;;;;;;3.22;100.00;101381.56;5011449;28;20455;-49
2022/02/23 07:31:07;;;;;;;0.20;0.10;;;;;;;3.33;100.00;101387.91;5003764;28;20576;-49
2022/02/23 07:33:37;;;;;;;0.20;0.10;;;;;;;3.52;100.00;101391.75;5012691;28;20492;-49
2022/02/23 07:36:04;;;;;;;0.20;0.10;;;;;;;3.65;100.00;101388.47;5012867;28;20535;-48
2022/02/23 07:38:32;;;;;;;0.20;0.10;;;;;;;3.81;100.00;101389.63;5008050;28;20450;-49
2022/02/23 07:40:58;;;;;;;0.20;0.10;;;;;;;3.94;100.00;101380.19;5004359;28;20512;-49
2022/02/23 07:43:45;;;;;;;0.20;0.20;;;;;;;4.14;100.00;101384.91;5001234;28;20540;-49
2022/02/23 07:46:12;;;;;;;0.20;0.10;;;;;;;4.20;100.00;101388.47;4999236;28;20460;-49
2022/02/23 07:48:41;;;;;;;0.20;0.10;;;;;;;4.38;100.00;101381.72;5012911;28;20453;-49
2022/02/23 07:51:08;;;;;;;0.20;0.13;;;;;;;4.44;100.00;101387.09;5010890;28;20472;-49
2022/02/23 07:53:34;;;;;;;0.20;0.10;;;;;;;4.72;100.00;101388.34;5000718;28;20997;-49
2022/02/23 07:56:02;;;;;;;0.20;0.13;;;;;;;4.87;100.00;101399.94;5014865;28;20452;-49
2022/02/23 07:58:28;;;;;;;0.20;0.20;;;;;;;4.99;100.00;101387.81;5023065;28;20452;-48
2022/02/23 08:00:57;;;;;;;0.20;0.10;;;;;;;5.05;100.00;101395.75;4998943;28;21005;-49
2022/02/23 08:03:24;;;;;;;0.20;0.10;;;;;;;5.17;100.00;101402.94;5012469;28;20817;-48
2022/02/23 08:05:51;;;;;;;0.20;0.10;;;;;;;5.12;100.00;101393.22;5005219;28;20451;-49
2022/02/23 08:08:19;;;;;;;0.20;0.20;;;;;;;5.28;100.00;101398.66;5002722;28;20477;-48
2022/02/23 08:10:46;;;;;;;0.20;0.10;;;;;;;5.42;100.00;101395.28;5009329;28;20472;-49
2022/02/23 08:13:13;;;;;;;0.20;0.10;;;;;;;5.54;100.00;101398.06;5012405;28;20488;-49
2022/02/23 08:21:14;;;;;;;0.20;0.10;;;;;;;5.89;100.00;101396.63;5001301;28;20472;-49
2022/02/23 08:23:43;;;;;;;0.40;0.40;;;;;;;5.98;100.00;101398.47;4998874;28;20449;-49
2022/02/23 08:26:12;;;;;;;0.20;0.10;;;;;;;6.03;100.00;101401.16;5012630;28;20499;-48
2022/02/23 08:28:39;;;;;;;0.30;0.20;;;;;;;6.03;100.00;101404.69;5008776;28;20515;-49
2022/02/23 08:31:06;;;;;;;0.20;0.10;;;;;;;6.29;100.00;101404.88;5002058;28;20515;-49
2022/02/23 08:33:33;;;;;;;0.20;0.10;;;;;;;6.45;100.00;101406.75;5011972;28;20488;-49
2022/02/23 08:36:00;;;;;;;0.30;0.20;;;;;;;6.61;100.00;101405.09;5011872;28;21019;-49
2022/02/23 08:38:26;;;;;;;0.20;0.10;;;;;;;6.33;100.00;101411.06;5012181;28;20452;-49
2022/02/23 08:40:53;;;;;;;0.20;0.10;;;;;;;6.54;100.00;101416.47;5012155;28;20515;-48
2022/02/23 08:43:20;;;;;;;0.20;0.10;;;;;;;6.68;100.00;101424.47;4999181;28;20527;-49
2022/02/23 08:45:47;;;;;;;0.20;0.10;;;;;;;6.73;100.00;101426.28;5012217;28;20817;-48
2022/02/23 08:48:14;;;;;;;0.20;0.17;;;;;;;6.80;100.00;101427.19;5007584;28;20464;-49
2022/02/23 08:50:40;;;;;;;0.30;0.20;;;;;;;6.94;100.00;101429.91;5003833;28;20469;-49
2022/02/23 08:53:07;;;;;;;0.23;0.10;;;;;;;7.06;100.00;101432.59;5012327;28;20570;-49
2022/02/23 08:55:34;;;;;;;0.20;0.20;;;;;;;6.95;100.00;101421.97;5001644;28;20840;-49
2022/02/23 08:58:05;;;;;;;0.20;0.10;;;;;;;7.09;100.00;101428.19;5029207;28;20506;-49
2022/02/23 09:00:32;;;;;;;1.07;1.03;;;;;;;7.17;100.00;101433.53;5002310;28;20549;-49
2022/02/23 09:03:00;;;;;;;0.30;0.10;;;;;;;7.22;100.00;101436.19;5015589;28;20448;-49
2022/02/23 09:05:27;;;;;;;0.53;0.50;;;;;;;7.45;100.00;101441.56;5008606;28;20503;-50
2022/02/23 09:07:53;;;;;;;0.20;0.10;;;;;;;7.44;100.00;101440.69;5009568;28;20488;-50
2022/02/23 09:10:20;;;;;;;0.30;0.20;;;;;;;7.38;100.00;101438.88;5008697;28;20472;-49
2022/02/23 09:12:47;;;;;;;0.27;0.20;;;;;;;7.63;100.00;101447.75;5015448;28;20480;-49
2022/02/23 09:15:15;;;;;;;0.30;0.20;;;;;;;7.47;100.00;101445.09;5002356;28;20537;-50
2022/02/23 09:17:42;;;;;;;0.30;0.20;;;;;;;7.60;100.00;101447.75;5002371;28;20448;-50
2022/02/23 09:20:09;;;;;;;0.23;0.20;;;;;;;7.56;100.00;101442.47;5002078;28;20977;-49
2022/02/23 09:22:36;;;;;;;0.20;0.17;;;;;;;7.86;100.00;101444.28;5015432;28;20448;-49
2022/02/23 09:25:05;;;;;;;0.23;0.20;;;;;;;7.98;100.00;101442.53;5015429;28;20484;-48
2022/02/23 09:27:32;;;;;;;1.93;0.87;;;;;;;8.05;100.00;101439.88;5007589;28;20948;-49
2022/02/23 09:29:58;;;;;;;0.30;0.20;;;;;;;8.16;100.00;101439.00;5009991;28;20528;-49
2022/02/23 09:32:25;;;;;;;0.30;0.20;;;;;;;8.21;100.00;101437.22;5015051;28;20491;-49
2022/02/23 09:34:52;;;;;;;0.30;0.20;;;;;;;8.32;100.00;101446.03;5001915;28;20805;-49
2022/02/23 09:37:19;;;;;;;0.30;0.10;;;;;;;8.67;100.00;101431.03;5015101;28;20449;-49
2022/02/23 09:39:46;;;;;;;1.03;0.83;;;;;;;8.59;100.00;101434.56;5001749;28;20481;-49
2022/02/23 09:42:12;;;;;;;0.30;0.20;;;;;;;8.81;100.00;101427.44;5015066;28;20448;-48
2022/02/23 09:44:42;;;;;;;0.30;0.20;;;;;;;8.59;100.00;101431.03;5012670;28;20460;-49
2022/02/23 09:47:25;;;;;;;0.40;0.40;;;;;;;8.69;100.00;101432.78;5006747;28;20445;-48
2022/02/23 09:49:52;;;;;;;0.30;0.20;;;;;;;8.96;100.00;101431.81;5014856;28;20472;-49
2022/02/23 09:52:24;;;;;;;0.40;0.40;;;;;;;9.14;100.00;101422.91;5003316;28;20453;-49
2022/02/23 09:54:55;;;;;;;0.30;0.30;;;;;;;9.02;100.00;101436.19;5014385;28;20448;-48
2022/02/23 09:57:22;;;;;;;0.30;0.20;;;;;;;9.17;100.00;101438.78;5014749;28;20437;-48
2022/02/23 09:59:49;;;;;;;0.30;0.20;;;;;;;9.33;100.00;101434.31;5001634;28;20993;-49
2022/02/23 10:02:15;;;;;;;0.30;0.20;;;;;;;9.52;99.42;101432.44;5005642;28;20444;-49
2022/02/23 10:04:43;;;;;;;0.30;0.20;;;;;;;9.63;99.30;101427.94;5007458;28;20452;-49
2022/02/23 10:07:13;;;;;;;0.30;0.20;;;;;;;9.77;97.09;101434.06;5007059;28;20455;-49
2022/02/23 10:09:45;;;;;;;0.30;0.20;;;;;;;9.85;96.85;101433.97;5002848;28;20523;-49
2022/02/23 10:12:24;;;;;;;0.30;0.20;;;;;;;10.05;95.33;101434.72;5014580;28;20480;-49
2022/02/23 10:15:06;;;;;;;0.30;0.20;;;;;;;10.18;93.09;101423.09;5004014;28;20473;-49
2022/02/23 10:17:46;;;;;;;0.30;0.20;;;;;;;10.20;93.65;101421.31;5014130;28;20444;-49
2022/02/23 10:20:28;;;;;;;0.30;0.20;;;;;;;10.23;92.90;101423.97;5012088;28;20468;-49
2022/02/23 10:23:02;;;;;;;0.30;0.17;;;;;;;9.80;92.78;101426.94;5005403;28;20475;-49
2022/02/23 10:25:31;;;;;;;0.30;0.20;;;;;;;9.90;90.82;101422.44;5014133;28;20471;-49
2022/02/23 10:28:17;;;;;;;0.30;0.20;;;;;;;9.74;90.47;101427.00;5001928;28;20449;-49
2022/02/23 10:30:54;;;;;;;0.30;0.20;;;;;;;9.63;90.69;101422.63;5003070;28;20468;-49
2022/02/23 10:33:26;;;;;;;0.30;0.20;;;;;;;9.79;90.35;101417.22;5014284;28;20491;-49
2022/02/23 10:36:16;;;;;;;0.30;0.20;;;;;;;10.07;90.00;101417.00;5012363;28;20900;-49
2022/02/23 10:38:48;;;;;;;0.30;0.20;;;;;;;9.99;89.03;101418.81;5006551;28;20454;-49
2022/02/23 10:41:26;;;;;;;0.30;0.20;;;;;;;10.22;90.69;101413.34;5020366;22;20567;-48
2022/02/23 10:43:53;;;;;;;0.30;0.20;;;;;;;10.63;90.13;101412.94;5003417;28;20449;-47
2022/02/23 10:46:23;;;;;;;0.33;0.27;;;;;;;10.90;88.09;101409.09;5007790;28;20530;-48
2022/02/23 10:48:59;;;;;;;0.30;0.20;;;;;;;10.98;85.98;101409.91;4995969;28;20458;-48
2022/02/23 10:51:32;;;;;;;0.30;0.20;;;;;;;10.83;85.48;101418.06;5004400;28;20478;-48
2022/02/23 10:54:25;;;;;;;0.30;0.20;;;;;;;10.93;84.35;101411.72;5019763;28;20485;-48
2022/02/23 10:56:53;;;;;;;0.30;0.20;;;;;;;11.04;82.95;101403.59;5017933;28;20463;-47
2022/02/23 10:59:22;;;;;;;2.93;2.83;;;;;;;10.81;81.97;101396.78;5010826;28;20572;-48
2022/02/23 11:01:50;;;;;;;0.30;0.20;;;;;;;11.02;83.28;101400.09;5009385;28;20527;-48
2022/02/23 11:04:20;;;;;;;0.30;0.20;;;;;;;10.85;83.76;101394.97;5019714;28;20518;-48
2022/02/23 11:06:48;;;;;;;0.30;0.20;;;;;;;10.68;81.49;101395.16;5015589;28;20475;-47
2022/02/23 11:09:14;;;;;;;0.30;0.20;;;;;;;10.60;80.40;101394.38;5021239;28;20536;-48
2022/02/23 11:11:42;;;;;;;0.30;0.20;;;;;;;10.70;80.63;101390.72;5025659;28;20477;-47
2022/02/23 11:14:10;;;;;;;0.30;0.20;;;;;;;10.79;79.56;101393.25;5022880;28;20549;-48
2022/02/23 11:16:37;;;;;;;0.30;0.20;;;;;;;11.17;80.13;101390.13;5001782;28;20508;-48
2022/02/23 11:19:06;;;;;;;0.30;0.20;;;;;;;11.12;81.27;101386.66;5004066;28;20487;-48
2022/02/23 11:21:37;;;;;;;0.30;0.20;;;;;;;11.09;78.76;101372.50;5012502;28;20472;-48
2022/02/23 11:24:08;;;;;;;0.30;0.20;;;;;;;11.44;78.91;101375.56;5011941;28;20452;-48
2022/02/23 11:26:37;;;;;;;0.30;0.20;;;;;;;11.46;79.07;101379.06;5008422;28;20996;-48
2022/02/23 11:29:33;;;;;;;0.30;0.20;;;;;;;11.38;78.18;101380.09;5027265;28;20529;-47
2022/02/23 11:32:03;;;;;;;0.30;0.20;;;;;;;11.64;77.23;101372.56;5030266;28;20913;-47
2022/02/23 11:34:30;;;;;;;0.30;0.20;;;;;;;11.24;78.35;101374.97;5032648;28;20996;-47
2022/02/23 11:36:57;;;;;;;0.30;0.20;;;;;;;11.40;77.79;101378.28;5032358;28;20956;-47